createdAt,value
2018-04-18T00:00:46.098Z,9.31
2018-04-18T00:01:46.120Z,9.36
2018-04-18T00:02:46.141Z,9.33
2018-04-18T00:03:46.149Z,9.24
2018-04-18T00:04:46.176Z,9.30
2018-04-18T00:05:46.192Z,9.27
2018-04-18T00:06:46.203Z,9.24
2018-04-18T00:07:46.223Z,9.29
2018-04-18T00:08:46.245Z,9.27
2018-04-18T00:09:46.266Z,9.29
2018-04-18T00:10:46.274Z,9.27
2018-04-18T00:11:46.295Z,9.24
2018-04-18T00:12:46.317Z,9.19
2018-04-18T00:13:46.326Z,9.24
2018-04-18T00:14:46.348Z,9.21
2018-04-18T00:15:46.369Z,9.18
2018-04-18T00:16:46.391Z,9.18
2018-04-18T00:17:46.400Z,9.21
2018-04-18T00:18:46.424Z,9.18
2018-04-18T00:19:46.442Z,9.15
2018-04-18T00:20:46.451Z,9.22
2018-04-18T00:21:46.473Z,9.21
2018-04-18T00:22:46.495Z,9.18
2018-04-18T00:23:46.504Z,9.16
2018-04-18T00:24:46.524Z,9.21
2018-04-18T00:25:46.545Z,9.13
2018-04-18T00:26:46.580Z,9.18
2018-04-18T00:27:46.577Z,9.13
2018-04-18T00:28:46.598Z,9.15
2018-04-18T00:29:46.665Z,9.12
2018-04-18T00:30:46.628Z,9.13
2018-04-18T00:31:46.662Z,9.12
2018-04-18T00:32:46.670Z,9.19
2018-04-18T00:33:46.691Z,9.12
2018-04-18T00:34:46.701Z,9.12
2018-04-18T00:35:46.972Z,9.13
2018-04-18T00:36:46.743Z,9.13
2018-04-18T00:37:46.752Z,9.12
2018-04-18T00:38:46.773Z,9.11
2018-04-18T00:39:46.795Z,9.05
2018-04-18T00:40:46.805Z,9.05
2018-04-18T00:41:46.830Z,9.02
2018-04-18T00:42:46.848Z,8.97
2018-04-18T00:43:46.857Z,9.00
2018-04-18T00:44:46.877Z,8.99
2018-04-18T00:45:46.898Z,8.97
2018-04-18T00:46:46.921Z,9.02
2018-04-18T00:47:46.930Z,8.96
2018-04-18T00:48:46.951Z,9.05
2018-04-18T00:49:46.977Z,8.87
2018-04-18T00:50:46.981Z,8.96
2018-04-18T00:51:47.002Z,8.92
2018-04-18T00:52:47.023Z,8.95
2018-04-18T00:53:47.037Z,8.93
2018-04-18T00:54:47.054Z,8.92
2018-04-18T00:55:47.077Z,8.87
2018-04-18T00:56:47.086Z,8.89
2018-04-18T00:57:47.106Z,8.84
2018-04-18T00:58:47.128Z,8.95
2018-04-18T00:59:47.148Z,8.87
2018-04-18T01:00:47.158Z,8.90
2018-04-18T01:01:47.180Z,8.84
2018-04-18T01:02:47.200Z,8.90
2018-04-18T01:03:47.209Z,8.75
2018-04-18T01:04:47.291Z,8.84
2018-04-18T01:05:47.252Z,8.79
2018-04-18T01:06:47.262Z,8.79
2018-04-18T01:07:47.282Z,8.77
2018-04-18T01:08:47.304Z,8.79
2018-04-18T01:09:47.312Z,8.81
2018-04-18T01:10:47.334Z,8.78
2018-04-18T01:11:47.356Z,8.79
2018-04-18T01:12:47.365Z,8.74
2018-04-18T01:13:47.387Z,8.79
2018-04-18T01:14:47.408Z,8.82
2018-04-18T01:15:47.417Z,8.84
2018-04-18T01:16:47.437Z,8.75
2018-04-18T01:17:47.459Z,8.77
2018-04-18T01:18:47.470Z,8.74
2018-04-18T01:19:47.490Z,8.77
2018-04-18T01:20:47.512Z,8.72
2018-04-18T01:21:47.521Z,8.72
2018-04-18T01:22:47.541Z,8.74
2018-04-18T01:23:47.565Z,8.68
2018-04-18T01:24:47.586Z,8.64
2018-04-18T01:25:47.593Z,8.71
2018-04-18T01:26:47.614Z,8.71
2018-04-18T01:27:47.635Z,8.69
2018-04-18T01:28:47.644Z,8.66
2018-04-18T01:29:47.665Z,8.60
2018-04-18T01:30:47.689Z,8.64
2018-04-18T01:31:47.696Z,8.68
2018-04-18T01:32:47.717Z,8.59
2018-04-18T01:33:47.728Z,8.64
2018-04-18T01:34:47.748Z,8.66
2018-04-18T01:35:47.769Z,8.61
2018-04-18T01:36:47.790Z,8.61
2018-04-18T01:37:47.799Z,8.64
2018-04-18T01:38:47.821Z,8.59
2018-04-18T01:39:47.842Z,8.53
2018-04-18T01:40:47.851Z,8.60
2018-04-18T01:41:47.873Z,8.49
2018-04-18T01:42:47.893Z,8.54
2018-04-18T01:43:47.902Z,8.54
2018-04-18T01:44:47.926Z,8.56
2018-04-18T01:45:47.934Z,8.52
2018-04-18T01:46:47.953Z,8.50
2018-04-18T01:47:47.975Z,8.46
2018-04-18T01:48:47.997Z,8.57
2018-04-18T01:49:48.006Z,8.46
2018-04-18T01:50:48.028Z,8.59
2018-04-18T01:51:48.038Z,8.46
2018-04-18T01:52:48.057Z,8.44
2018-04-18T01:53:48.079Z,8.54
2018-04-18T01:54:48.093Z,8.49
2018-04-18T01:55:48.110Z,8.53
2018-04-18T01:56:48.134Z,8.44
2018-04-18T01:57:48.141Z,8.44
2018-04-18T01:58:48.161Z,8.54
2018-04-18T01:59:48.189Z,8.57
2018-04-18T02:00:48.193Z,8.44
2018-04-18T02:01:48.216Z,8.46
2018-04-18T02:02:48.236Z,8.46
2018-04-18T02:03:48.243Z,8.44
2018-04-18T02:04:48.264Z,8.42
2018-04-18T02:05:48.285Z,8.42
2018-04-18T02:06:48.296Z,8.49
2018-04-18T02:07:48.317Z,8.45
2018-04-18T02:08:48.337Z,8.39
2018-04-18T02:09:48.346Z,8.42
2018-04-18T02:10:48.381Z,8.38
2018-04-18T02:11:48.388Z,8.42
2018-04-18T02:12:48.398Z,8.35
2018-04-18T02:13:48.419Z,8.41
2018-04-18T02:14:48.444Z,8.41
2018-04-18T02:15:48.449Z,8.34
2018-04-18T02:16:48.470Z,8.41
2018-04-18T02:17:48.491Z,8.31
2018-04-18T02:18:48.501Z,8.42
2018-04-18T02:19:48.522Z,8.28
2018-04-18T02:20:48.548Z,8.38
2018-04-18T02:21:48.552Z,8.34
2018-04-18T02:22:48.574Z,8.28
2018-04-18T02:23:48.584Z,8.27
2018-04-18T02:24:48.604Z,8.27
2018-04-18T02:25:48.625Z,8.27
2018-04-18T02:26:48.634Z,8.24
2018-04-18T02:27:48.658Z,8.27
2018-04-18T02:28:48.676Z,8.28
2018-04-18T02:29:48.693Z,8.26
2018-04-18T02:30:48.709Z,8.26
2018-04-18T02:31:48.729Z,8.32
2018-04-18T02:32:48.738Z,8.24
2018-04-18T02:33:48.761Z,8.24
2018-04-18T02:34:48.780Z,8.18
2018-04-18T02:35:48.790Z,8.13
2018-04-18T02:36:48.811Z,8.23
2018-04-18T02:37:48.820Z,8.13
2018-04-18T02:38:48.853Z,8.23
2018-04-18T02:39:48.862Z,8.16
2018-04-18T02:40:48.872Z,8.08
2018-04-18T02:41:48.893Z,8.17
2018-04-18T02:42:48.914Z,8.13
2018-04-18T02:43:48.922Z,8.11
2018-04-18T02:44:48.944Z,8.13
2018-04-18T02:45:48.964Z,8.11
2018-04-18T02:46:48.977Z,8.16
2018-04-18T02:47:48.996Z,8.14
2018-04-18T02:48:49.017Z,8.11
2018-04-18T02:49:49.025Z,8.09
2018-04-18T02:50:49.047Z,8.14
2018-04-18T02:51:49.056Z,8.06
2018-04-18T02:52:49.078Z,8.09
2018-04-18T02:53:49.098Z,8.02
2018-04-18T02:54:49.107Z,8.03
2018-04-18T02:55:49.133Z,8.02
2018-04-18T02:56:49.148Z,8.01
2018-04-18T02:57:49.159Z,8.03
2018-04-18T02:58:49.180Z,7.99
2018-04-18T02:59:49.191Z,7.99
2018-04-18T03:00:49.210Z,8.02
2018-04-18T03:01:49.234Z,7.95
2018-04-18T03:02:49.241Z,7.99
2018-04-18T03:03:49.262Z,7.96
2018-04-18T03:04:49.283Z,8.02
2018-04-18T03:05:49.292Z,8.01
2018-04-18T03:06:49.313Z,8.01
2018-04-18T03:07:49.335Z,7.91
2018-04-18T03:08:49.344Z,7.98
2018-04-18T03:09:49.365Z,7.96
2018-04-18T03:10:49.378Z,7.90
2018-04-18T03:11:49.395Z,7.91
2018-04-18T03:12:49.417Z,8.01
2018-04-18T03:13:49.426Z,7.91
2018-04-18T03:14:49.452Z,7.96
2018-04-18T03:15:49.468Z,7.93
2018-04-18T03:16:49.477Z,7.95
2018-04-18T03:17:49.498Z,7.95
2018-04-18T03:18:49.519Z,7.90
2018-04-18T03:19:49.531Z,7.93
2018-04-18T03:20:49.551Z,7.91
2018-04-18T03:21:49.562Z,7.93
2018-04-18T03:22:49.580Z,7.91
2018-04-18T03:23:49.602Z,7.88
2018-04-18T03:24:49.612Z,7.93
2018-04-18T03:25:49.633Z,7.91
2018-04-18T03:26:49.642Z,7.95
2018-04-18T03:27:49.664Z,7.95
2018-04-18T03:28:49.684Z,7.88
2018-04-18T03:29:49.694Z,7.87
2018-04-18T03:30:49.716Z,7.95
2018-04-18T03:31:49.729Z,7.88
2018-04-18T03:32:49.747Z,7.90
2018-04-18T03:33:49.776Z,7.78
2018-04-18T03:34:49.777Z,7.88
2018-04-18T03:35:49.798Z,7.83
2018-04-18T03:36:49.819Z,7.84
2018-04-18T03:37:49.828Z,7.93
2018-04-18T03:38:49.849Z,7.87
2018-04-18T03:39:49.860Z,7.87
2018-04-18T03:40:49.943Z,7.83
2018-04-18T03:41:49.901Z,7.85
2018-04-18T03:42:49.914Z,7.91
2018-04-18T03:43:49.931Z,7.87
2018-04-18T03:44:49.952Z,7.78
2018-04-18T03:45:49.962Z,7.84
2018-04-18T03:46:49.984Z,7.84
2018-04-18T03:47:49.992Z,7.78
2018-04-18T03:48:50.013Z,7.83
2018-04-18T03:49:50.034Z,7.77
2018-04-18T03:50:50.044Z,7.77
2018-04-18T03:51:50.064Z,7.80
2018-04-18T03:52:50.091Z,7.85
2018-04-18T03:53:50.094Z,7.83
2018-04-18T03:54:50.116Z,7.77
2018-04-18T03:55:50.128Z,7.72
2018-04-18T03:56:50.146Z,7.77
2018-04-18T03:57:50.174Z,7.83
2018-04-18T03:58:50.189Z,7.72
2018-04-18T03:59:50.197Z,7.74
2018-04-18T04:00:50.207Z,7.77
2018-04-18T04:01:50.229Z,7.75
2018-04-18T04:02:50.250Z,7.78
2018-04-18T04:03:50.258Z,7.78
2018-04-18T04:04:50.281Z,7.80
2018-04-18T04:05:50.290Z,7.83
2018-04-18T04:06:50.312Z,7.74
2018-04-18T04:07:50.336Z,7.78
2018-04-18T04:08:50.340Z,7.83
2018-04-18T04:09:50.361Z,7.75
2018-04-18T04:10:50.387Z,7.64
2018-04-18T04:11:50.393Z,7.75
2018-04-18T04:12:50.414Z,7.67
2018-04-18T04:13:50.422Z,7.69
2018-04-18T04:14:50.444Z,7.70
2018-04-18T04:15:50.478Z,7.74
2018-04-18T04:16:50.523Z,7.67
2018-04-18T04:17:50.495Z,7.80
2018-04-18T04:18:50.506Z,7.75
2018-04-18T04:19:50.570Z,7.77
2018-04-18T04:20:50.547Z,7.66
2018-04-18T04:21:50.555Z,7.77
2018-04-18T04:22:50.577Z,7.70
2018-04-18T04:23:50.599Z,7.70
2018-04-18T04:24:50.644Z,7.70
2018-04-18T04:25:50.628Z,7.70
2018-04-18T04:26:50.638Z,7.83
2018-04-18T04:27:50.662Z,7.67
2018-04-18T04:28:50.681Z,7.77
2018-04-18T04:29:50.690Z,7.77
2018-04-18T04:30:50.710Z,7.80
2018-04-18T04:31:50.732Z,7.80
2018-04-18T04:32:50.741Z,7.78
2018-04-18T04:33:50.762Z,7.80
2018-04-18T04:34:50.774Z,7.87
2018-04-18T04:35:50.796Z,7.84
2018-04-18T04:36:50.814Z,7.90
2018-04-18T04:37:50.827Z,7.85
2018-04-18T04:38:50.846Z,7.88
2018-04-18T04:39:50.855Z,7.87
2018-04-18T04:40:50.875Z,7.87
2018-04-18T04:41:50.898Z,7.96
2018-04-18T04:42:50.907Z,7.93
2018-04-18T04:43:50.928Z,7.85
2018-04-18T04:44:51.017Z,7.93
2018-04-18T04:45:50.957Z,7.90
2018-04-18T04:46:50.991Z,7.96
2018-04-18T04:47:50.999Z,7.93
2018-04-18T04:48:51.010Z,8.03
2018-04-18T04:49:51.033Z,7.96
2018-04-18T04:50:51.040Z,8.01
2018-04-18T04:51:51.062Z,8.03
2018-04-18T04:52:51.082Z,8.06
2018-04-18T04:53:51.092Z,8.03
2018-04-18T04:54:51.121Z,8.09
2018-04-18T04:55:51.134Z,8.11
2018-04-18T04:56:51.144Z,8.16
2018-04-18T04:57:51.164Z,8.17
2018-04-18T04:58:51.186Z,8.21
2018-04-18T04:59:51.194Z,8.20
2018-04-18T05:00:51.217Z,8.16
2018-04-18T05:01:51.227Z,8.21
2018-04-18T05:02:51.249Z,8.26
2018-04-18T05:03:51.268Z,8.23
2018-04-18T05:04:51.288Z,8.32
2018-04-18T05:05:51.299Z,8.39
2018-04-18T05:06:51.320Z,8.42
2018-04-18T05:07:51.329Z,8.38
2018-04-18T05:08:51.350Z,8.41
2018-04-18T05:09:51.371Z,8.45
2018-04-18T05:10:51.381Z,8.49
2018-04-18T05:11:51.402Z,8.46
2018-04-18T05:12:51.424Z,8.56
2018-04-18T05:13:51.433Z,8.50
2018-04-18T05:14:51.453Z,8.46
2018-04-18T05:15:51.475Z,8.56
2018-04-18T05:16:51.486Z,8.60
2018-04-18T05:17:51.506Z,8.72
2018-04-18T05:18:51.526Z,8.68
2018-04-18T05:19:51.537Z,8.68
2018-04-18T05:20:51.557Z,8.74
2018-04-18T05:21:51.577Z,8.69
2018-04-18T05:22:51.603Z,8.75
2018-04-18T05:23:51.609Z,8.79
2018-04-18T05:24:51.630Z,8.77
2018-04-18T05:25:51.652Z,8.86
2018-04-18T05:26:51.660Z,8.86
2018-04-18T05:27:51.682Z,8.97
2018-04-18T05:28:51.703Z,8.89
2018-04-18T05:29:51.713Z,8.96
2018-04-18T05:30:51.784Z,9.02
2018-04-18T05:31:51.755Z,8.97
2018-04-18T05:32:51.776Z,9.15
2018-04-18T05:33:51.786Z,9.18
2018-04-18T05:34:51.807Z,9.16
2018-04-18T05:35:51.829Z,9.21
2018-04-18T05:36:51.837Z,9.26
2018-04-18T05:37:51.858Z,9.29
2018-04-18T05:38:51.880Z,9.30
2018-04-18T05:39:51.901Z,9.30
2018-04-18T05:40:51.910Z,9.31
2018-04-18T05:41:51.931Z,9.44
2018-04-18T05:42:51.952Z,9.47
2018-04-18T05:43:51.962Z,9.48
2018-04-18T05:44:51.983Z,9.59
2018-04-18T05:45:52.005Z,9.63
2018-04-18T05:46:52.027Z,9.64
2018-04-18T05:47:52.035Z,9.73
2018-04-18T05:48:52.056Z,9.74
2018-04-18T05:49:52.083Z,9.77
2018-04-18T05:50:52.099Z,9.77
2018-04-18T05:51:52.109Z,9.84
2018-04-18T05:52:52.132Z,9.94
2018-04-18T05:53:52.151Z,9.95
2018-04-18T05:54:52.203Z,9.97
2018-04-18T05:55:52.184Z,9.95
2018-04-18T05:56:52.202Z,10.15
2018-04-18T05:57:52.225Z,10.15
2018-04-18T05:58:52.244Z,10.23
2018-04-18T05:59:52.256Z,10.27
2018-04-18T06:00:52.276Z,10.30
2018-04-18T06:01:52.297Z,10.36
2018-04-18T06:02:52.322Z,10.34
2018-04-18T06:03:52.340Z,10.43
2018-04-18T06:04:52.349Z,10.51
2018-04-18T06:05:52.369Z,10.62
2018-04-18T06:06:52.391Z,10.67
2018-04-18T06:07:52.425Z,10.71
2018-04-18T06:08:52.434Z,10.77
2018-04-18T06:09:52.444Z,10.83
2018-04-18T06:10:52.465Z,10.79
2018-04-18T06:11:52.486Z,10.97
2018-04-18T06:12:52.509Z,10.98
2018-04-18T06:13:52.529Z,11.16
2018-04-18T06:14:52.538Z,11.12
2018-04-18T06:15:52.559Z,11.27
2018-04-18T06:16:52.580Z,11.37
2018-04-18T06:17:52.602Z,11.45
2018-04-18T06:18:52.623Z,11.45
2018-04-18T06:19:52.645Z,11.59
2018-04-18T06:20:52.681Z,11.73
2018-04-18T06:21:52.676Z,11.76
2018-04-18T06:22:52.697Z,11.83
2018-04-18T06:23:52.720Z,11.88
2018-04-18T06:24:52.739Z,12.05
2018-04-18T06:25:52.761Z,12.20
2018-04-18T06:26:52.781Z,12.44
2018-04-18T06:27:52.804Z,12.65
2018-04-18T06:28:52.825Z,12.72
2018-04-18T06:29:52.837Z,12.95
2018-04-18T06:30:52.868Z,13.13
2018-04-18T06:31:52.876Z,13.28
2018-04-18T06:32:52.898Z,13.50
2018-04-18T06:33:52.919Z,13.62
2018-04-18T06:34:52.940Z,13.83
2018-04-18T06:35:52.962Z,13.95
2018-04-18T06:36:52.983Z,14.15
2018-04-18T06:37:53.004Z,14.40
2018-04-18T06:38:53.026Z,14.62
2018-04-18T06:39:53.048Z,14.79
2018-04-18T06:40:53.069Z,14.96
2018-04-18T06:41:53.091Z,15.08
2018-04-18T06:42:53.112Z,15.35
2018-04-18T06:43:53.146Z,15.39
2018-04-18T06:44:53.167Z,15.55
2018-04-18T06:45:53.245Z,15.80
2018-04-18T06:46:53.210Z,16.02
2018-04-18T06:47:53.231Z,16.18
2018-04-18T06:48:53.253Z,16.28
2018-04-18T06:49:53.278Z,16.39
2018-04-18T06:50:53.296Z,16.59
2018-04-18T06:51:53.317Z,16.79
2018-04-18T06:52:53.350Z,17.01
2018-04-18T06:53:53.375Z,17.19
2018-04-18T06:54:53.392Z,17.23
2018-04-18T06:55:53.415Z,17.54
2018-04-18T06:56:53.449Z,17.60
2018-04-18T06:57:53.459Z,17.80
2018-04-18T06:58:53.493Z,17.90
2018-04-18T06:59:53.515Z,18.16
2018-04-18T07:00:53.547Z,18.24
2018-04-18T07:01:53.557Z,18.34
2018-04-18T07:02:53.591Z,18.49
2018-04-18T07:03:53.611Z,18.64
2018-04-18T07:04:53.633Z,18.81
2018-04-18T07:05:53.654Z,19.07
2018-04-18T07:06:53.689Z,19.17
2018-04-18T07:07:53.711Z,19.35
2018-04-18T07:08:53.732Z,19.35
2018-04-18T07:09:53.778Z,19.49
2018-04-18T07:10:53.786Z,19.64
2018-04-18T07:11:53.808Z,19.66
2018-04-18T07:12:53.843Z,19.79
2018-04-18T07:13:53.865Z,19.93
2018-04-18T07:14:53.885Z,20.11
2018-04-18T07:15:53.918Z,20.12
2018-04-18T07:16:53.946Z,20.37
2018-04-18T07:17:53.973Z,20.33
2018-04-18T07:18:53.996Z,20.33
2018-04-18T07:19:54.020Z,20.52
2018-04-18T07:20:54.050Z,20.63
2018-04-18T07:21:54.073Z,20.73
2018-04-18T07:22:54.093Z,20.78
2018-04-18T07:23:54.128Z,20.92
2018-04-18T07:24:54.149Z,21.04
2018-04-18T07:25:54.183Z,21.15
2018-04-18T07:26:54.204Z,21.22
2018-04-18T07:27:54.239Z,21.29
2018-04-18T07:28:54.260Z,21.30
2018-04-18T07:29:54.293Z,21.40
2018-04-18T07:30:54.314Z,21.50
2018-04-18T07:31:54.337Z,21.44
2018-04-18T07:32:54.371Z,21.50
2018-04-18T07:33:54.395Z,21.66
2018-04-18T07:34:54.425Z,21.75
2018-04-18T07:35:54.448Z,21.88
2018-04-18T07:36:54.482Z,21.97
2018-04-18T07:37:54.515Z,22.07
2018-04-18T07:38:54.536Z,22.18
2018-04-18T07:39:54.570Z,22.23
2018-04-18T07:40:54.592Z,22.31
2018-04-18T07:41:54.625Z,22.49
2018-04-18T07:42:54.647Z,22.44
2018-04-18T07:43:54.681Z,22.46
2018-04-18T07:44:54.703Z,22.63
2018-04-18T07:45:54.749Z,22.61
2018-04-18T07:46:54.770Z,22.68
2018-04-18T07:47:54.791Z,22.68
2018-04-18T07:48:54.825Z,22.78
2018-04-18T07:49:54.847Z,22.89
2018-04-18T07:50:54.881Z,22.92
2018-04-18T07:51:54.916Z,22.98
2018-04-18T07:52:54.941Z,23.04
2018-04-18T07:53:54.970Z,23.13
2018-04-18T07:54:55.022Z,23.16
2018-04-18T07:55:55.025Z,23.23
2018-04-18T07:56:55.060Z,23.32
2018-04-18T07:57:55.093Z,23.37
2018-04-18T07:58:55.115Z,23.32
2018-04-18T07:59:55.148Z,23.34
2018-04-18T08:00:55.182Z,23.33
2018-04-18T08:01:55.260Z,23.20
2018-04-18T08:02:55.241Z,23.26
2018-04-18T08:03:55.270Z,23.11
2018-04-18T08:04:55.310Z,22.96
2018-04-18T08:05:55.328Z,22.93
2018-04-18T08:06:55.359Z,22.74
2018-04-18T08:07:55.394Z,22.70
2018-04-18T08:08:55.415Z,22.58
2018-04-18T08:09:55.450Z,22.43
2018-04-18T08:10:55.471Z,22.31
2018-04-18T08:11:55.509Z,22.18
2018-04-18T08:12:55.538Z,22.04
2018-04-18T08:13:55.559Z,22.08
2018-04-18T08:14:55.594Z,21.92
2018-04-18T08:15:55.618Z,21.80
2018-04-18T08:16:55.649Z,21.74
2018-04-18T08:17:55.672Z,21.59
2018-04-18T08:18:55.705Z,21.50
2018-04-18T08:19:55.732Z,21.44
2018-04-18T08:20:55.773Z,21.30
2018-04-18T08:21:55.781Z,21.32
2018-04-18T08:22:55.802Z,21.25
2018-04-18T08:23:55.837Z,21.26
2018-04-18T08:24:55.859Z,21.15
2018-04-18T08:25:55.892Z,21.25
2018-04-18T08:26:55.913Z,21.10
2018-04-18T08:27:55.935Z,21.11
2018-04-18T08:28:55.970Z,21.05
2018-04-18T08:29:55.991Z,21.05
2018-04-18T08:30:56.023Z,20.96
2018-04-18T08:31:56.045Z,20.95
2018-04-18T08:32:56.068Z,20.93
2018-04-18T08:33:56.133Z,20.98
2018-04-18T08:34:56.122Z,20.93
2018-04-18T08:35:56.144Z,20.85
2018-04-18T08:36:56.180Z,20.85
2018-04-18T08:37:56.199Z,20.83
2018-04-18T08:38:56.229Z,20.82
2018-04-18T08:39:56.254Z,20.75
2018-04-18T08:40:56.275Z,20.82
2018-04-18T08:41:56.308Z,20.82
2018-04-18T08:42:56.329Z,20.80
2018-04-18T08:43:56.351Z,20.77
2018-04-18T08:44:56.386Z,20.68
2018-04-18T08:45:56.408Z,20.77
2018-04-18T08:46:56.428Z,20.68
2018-04-18T08:47:56.462Z,20.77
2018-04-18T08:48:56.509Z,20.74
2018-04-18T08:49:56.505Z,20.67
2018-04-18T08:50:56.539Z,20.68
2018-04-18T08:51:56.560Z,20.74
2018-04-18T08:52:56.582Z,20.80
2018-04-18T08:53:56.615Z,20.80
2018-04-18T08:54:56.637Z,20.82
2018-04-18T08:55:56.658Z,20.77
2018-04-18T08:56:56.693Z,20.82
2018-04-18T08:57:56.714Z,20.85
2018-04-18T08:58:56.734Z,20.77
2018-04-18T08:59:56.757Z,20.80
2018-04-18T09:00:56.793Z,20.78
2018-04-18T09:01:56.811Z,20.82
2018-04-18T09:02:56.833Z,20.92
2018-04-18T09:03:56.866Z,20.85
2018-04-18T09:04:56.888Z,20.95
2018-04-18T09:05:56.908Z,20.93
2018-04-18T09:06:56.943Z,20.95
2018-04-18T09:07:56.963Z,20.96
2018-04-18T09:08:56.985Z,20.95
2018-04-18T09:09:57.020Z,21.00
2018-04-18T09:10:57.042Z,20.95
2018-04-18T09:11:57.063Z,21.04
2018-04-18T09:12:57.095Z,21.01
2018-04-18T09:13:57.118Z,21.07
2018-04-18T09:14:57.139Z,21.04
2018-04-18T09:15:57.173Z,21.04
2018-04-18T09:16:57.195Z,21.05
2018-04-18T09:17:57.217Z,21.07
2018-04-18T09:18:57.253Z,21.11
2018-04-18T09:19:57.274Z,21.11
2018-04-18T09:20:57.292Z,21.25
2018-04-18T09:21:57.329Z,21.28
2018-04-18T09:22:57.350Z,21.20
2018-04-18T09:23:57.370Z,21.22
2018-04-18T09:24:57.402Z,21.20
2018-04-18T09:25:57.425Z,21.20
2018-04-18T09:26:57.445Z,21.25
2018-04-18T09:27:57.480Z,21.29
2018-04-18T09:28:57.501Z,21.32
2018-04-18T09:29:57.522Z,21.35
2018-04-18T09:30:57.557Z,21.35
2018-04-18T09:31:57.579Z,21.32
2018-04-18T09:32:57.598Z,21.38
2018-04-18T09:33:57.633Z,21.45
2018-04-18T09:34:57.655Z,21.44
2018-04-18T09:35:57.679Z,21.51
2018-04-18T09:36:57.709Z,21.50
2018-04-18T09:37:57.736Z,21.56
2018-04-18T09:38:57.765Z,21.59
2018-04-18T09:39:57.786Z,21.58
2018-04-18T09:40:57.807Z,21.56
2018-04-18T09:41:57.844Z,21.63
2018-04-18T09:42:57.865Z,21.63
2018-04-18T09:43:57.886Z,21.65
2018-04-18T09:44:57.923Z,21.70
2018-04-18T09:45:57.940Z,21.63
2018-04-18T09:46:57.962Z,21.74
2018-04-18T09:47:57.995Z,21.75
2018-04-18T09:48:58.016Z,21.77
2018-04-18T09:49:58.051Z,21.88
2018-04-18T09:50:58.081Z,21.83
2018-04-18T09:51:58.094Z,21.89
2018-04-18T09:52:58.127Z,21.89
2018-04-18T09:53:58.148Z,22.03
2018-04-18T09:54:58.170Z,22.00
2018-04-18T09:55:58.204Z,22.00
2018-04-18T09:56:58.226Z,22.12
2018-04-18T09:57:58.247Z,22.04
2018-04-18T09:58:58.281Z,22.08
2018-04-18T09:59:58.303Z,22.14
2018-04-18T10:00:58.337Z,22.22
2018-04-18T10:01:58.358Z,22.23
2018-04-18T10:02:58.379Z,22.23
2018-04-18T10:03:58.412Z,22.16
2018-04-18T10:04:58.435Z,22.30
2018-04-18T10:05:58.473Z,22.34
2018-04-18T10:06:58.489Z,22.33
2018-04-18T10:07:58.511Z,22.34
2018-04-18T10:08:58.544Z,22.46
2018-04-18T10:09:58.566Z,22.49
2018-04-18T10:10:58.600Z,22.52
2018-04-18T10:11:58.621Z,22.46
2018-04-18T10:12:58.643Z,22.52
2018-04-18T10:13:58.676Z,22.62
2018-04-18T10:14:58.698Z,22.67
2018-04-18T10:15:58.732Z,22.63
2018-04-18T10:16:58.753Z,22.70
2018-04-18T10:17:58.787Z,22.77
2018-04-18T10:18:58.808Z,22.76
2018-04-18T10:19:58.843Z,22.86
2018-04-18T10:20:58.864Z,22.91
2018-04-18T10:21:58.897Z,22.99
2018-04-18T10:22:58.977Z,23.11
2018-04-18T10:23:58.953Z,23.28
2018-04-18T10:24:58.986Z,23.34
2018-04-18T10:25:59.008Z,23.51
2018-04-18T10:26:59.043Z,23.73
2018-04-18T10:27:59.075Z,23.88
2018-04-18T10:28:59.097Z,24.07
2018-04-18T10:29:59.132Z,24.11
2018-04-18T10:30:59.164Z,24.37
2018-04-18T10:31:59.199Z,24.46
2018-04-18T10:32:59.220Z,24.56
2018-04-18T10:33:59.253Z,24.75
2018-04-18T10:34:59.288Z,24.85
2018-04-18T10:35:59.321Z,24.97
2018-04-18T10:36:59.355Z,25.09
2018-04-18T10:37:59.388Z,25.25
2018-04-18T10:38:59.423Z,25.31
2018-04-18T10:39:59.456Z,25.37
2018-04-18T10:40:59.491Z,25.63
2018-04-18T10:41:59.524Z,25.81
2018-04-18T10:42:59.565Z,26.08
2018-04-18T10:43:59.599Z,26.30
2018-04-18T10:44:59.635Z,26.55
2018-04-18T10:45:59.664Z,26.74
2018-04-18T10:46:59.703Z,26.96
2018-04-18T10:47:59.728Z,27.30
2018-04-18T10:48:59.773Z,27.48
2018-04-18T10:49:59.810Z,27.73
2018-04-18T10:50:59.842Z,27.86
2018-04-18T10:51:59.875Z,27.98
2018-04-18T10:52:59.925Z,28.27
2018-04-18T10:53:59.956Z,28.40
2018-04-18T10:54:59.992Z,28.65
2018-04-18T10:56:00.038Z,28.90
2018-04-18T10:57:00.078Z,29.07
2018-04-18T10:58:00.105Z,29.18
2018-04-18T10:59:00.151Z,29.34
2018-04-18T11:00:00.198Z,29.43
2018-04-18T11:01:00.235Z,29.74
2018-04-18T11:02:00.267Z,29.79
2018-04-18T11:03:00.314Z,29.98
2018-04-18T11:04:00.359Z,30.18
2018-04-18T11:05:00.399Z,30.29
2018-04-18T11:06:00.426Z,30.65
2018-04-18T11:07:00.464Z,30.85
2018-04-18T11:08:00.506Z,30.95
2018-04-18T11:09:00.553Z,31.18
2018-04-18T11:10:00.588Z,31.23
2018-04-18T11:11:00.622Z,31.39
2018-04-18T11:12:00.667Z,31.57
2018-04-18T11:13:00.717Z,31.54
2018-04-18T11:14:00.748Z,31.73
2018-04-18T11:15:00.794Z,31.90
2018-04-18T11:16:00.828Z,31.97
2018-04-18T11:17:00.886Z,32.16
2018-04-18T11:18:00.908Z,32.31
2018-04-18T11:19:00.957Z,32.45
2018-04-18T11:20:00.989Z,32.64
2018-04-18T11:21:01.034Z,32.73
2018-04-18T11:22:01.080Z,32.85
2018-04-18T11:23:01.114Z,33.01
2018-04-18T11:24:01.163Z,33.09
2018-04-18T11:25:01.196Z,33.31
2018-04-18T11:26:01.241Z,33.31
2018-04-18T11:27:01.334Z,33.12
2018-04-18T11:28:01.322Z,33.33
2018-04-18T11:29:01.369Z,33.32
2018-04-18T11:30:01.408Z,33.32
2018-04-18T11:31:01.448Z,33.38
2018-04-18T11:32:01.495Z,33.55
2018-04-18T11:33:01.529Z,33.55
2018-04-18T11:34:01.576Z,33.72
2018-04-18T11:35:01.625Z,33.87
2018-04-18T11:36:01.659Z,33.79
2018-04-18T11:37:01.706Z,33.70
2018-04-18T11:38:01.737Z,33.79
2018-04-18T11:39:01.784Z,33.76
2018-04-18T11:40:01.830Z,33.94
2018-04-18T11:41:01.865Z,33.89
2018-04-18T11:42:01.916Z,33.98
2018-04-18T11:43:01.957Z,34.04
2018-04-18T11:44:01.990Z,33.98
2018-04-18T11:45:02.037Z,34.07
2018-04-18T11:46:02.084Z,34.10
2018-04-18T11:47:02.118Z,34.06
2018-04-18T11:48:02.163Z,34.06
2018-04-18T11:49:02.222Z,34.10
2018-04-18T11:50:02.244Z,34.10
2018-04-18T11:51:02.290Z,34.14
2018-04-18T11:52:02.336Z,34.32
2018-04-18T11:53:02.369Z,34.22
2018-04-18T11:54:02.415Z,34.37
2018-04-18T11:55:02.462Z,34.55
2018-04-18T11:56:02.496Z,34.58
2018-04-18T11:57:02.544Z,34.66
2018-04-18T11:58:02.589Z,34.65
2018-04-18T11:59:02.623Z,34.56
2018-04-18T12:00:02.668Z,34.58
2018-04-18T12:01:02.715Z,34.63
2018-04-18T12:02:02.754Z,34.73
2018-04-18T12:03:02.797Z,34.70
2018-04-18T12:04:02.844Z,34.63
2018-04-18T12:05:02.880Z,34.43
2018-04-18T12:06:02.923Z,34.53
2018-04-18T12:07:02.968Z,34.43
2018-04-18T12:08:03.005Z,34.62
2018-04-18T12:09:03.049Z,34.69
2018-04-18T12:10:03.097Z,34.73
2018-04-18T12:11:03.142Z,34.89
2018-04-18T12:12:03.176Z,35.10
2018-04-18T12:13:03.222Z,35.19
2018-04-18T12:14:03.268Z,35.13
2018-04-18T12:15:03.304Z,35.23
2018-04-18T12:16:03.352Z,35.34
2018-04-18T12:17:03.396Z,35.38
2018-04-18T12:18:03.431Z,35.45
2018-04-18T12:19:03.476Z,35.59
2018-04-18T12:20:03.523Z,35.53
2018-04-18T12:21:03.555Z,35.45
2018-04-18T12:22:03.602Z,35.16
2018-04-18T12:23:03.652Z,35.05
2018-04-18T12:24:03.699Z,35.07
2018-04-18T12:25:03.730Z,35.01
2018-04-18T12:26:03.776Z,34.98
2018-04-18T12:27:03.809Z,34.94
2018-04-18T12:28:03.855Z,35.04
2018-04-18T12:29:03.902Z,35.05
2018-04-18T12:30:03.934Z,34.93
2018-04-18T12:31:03.984Z,34.98
2018-04-18T12:32:04.027Z,34.98
2018-04-18T12:33:04.063Z,34.96
2018-04-18T12:34:04.108Z,34.83
2018-04-18T12:35:04.154Z,34.85
2018-04-18T12:36:04.196Z,34.83
2018-04-18T12:37:04.234Z,34.89
2018-04-18T12:38:04.280Z,34.78
2018-04-18T12:39:04.316Z,34.65
2018-04-18T12:40:04.363Z,34.60
2018-04-18T12:41:04.396Z,34.48
2018-04-18T12:42:04.442Z,34.21
2018-04-18T12:43:04.488Z,34.04
2018-04-18T12:44:04.523Z,33.97
2018-04-18T12:45:04.569Z,33.81
2018-04-18T12:46:04.614Z,33.65
2018-04-18T12:47:04.648Z,33.39
2018-04-18T12:48:04.682Z,33.16
2018-04-18T12:49:04.729Z,32.78
2018-04-18T12:50:04.779Z,32.51
2018-04-18T12:51:04.808Z,32.27
2018-04-18T12:52:04.844Z,31.90
2018-04-18T12:53:04.890Z,31.78
2018-04-18T12:54:04.921Z,31.50
2018-04-18T12:55:04.968Z,31.28
2018-04-18T12:56:05.002Z,31.07
2018-04-18T12:57:05.036Z,31.07
2018-04-18T12:58:05.070Z,30.86
2018-04-18T12:59:05.105Z,30.74
2018-04-18T13:00:05.153Z,30.46
2018-04-18T13:01:05.185Z,30.17
2018-04-18T13:02:05.217Z,30.01
2018-04-18T13:03:05.251Z,29.81
2018-04-18T13:04:05.297Z,29.77
2018-04-18T13:05:05.319Z,29.46